sensor_id;sensor_type;location;lat;lon;timestamp;P1;durP1;ratioP1;P2;durP2;ratioP2
71106;SDS011;58763;47.982;11.516;2024-02-16T00:00:24;2.63;;;1.10;;
71106;SDS011;58763;47.982;11.516;2024-02-16T00:02:50;3.03;;;1.38;;
71106;SDS011;58763;47.982;11.516;2024-02-16T00:05:18;2.88;;;1.20;;
71106;SDS011;58763;47.982;11.516;2024-02-16T00:07:44;3.95;;;1.25;;
71106;SDS011;58763;47.982;11.516;2024-02-16T00:10:09;4.38;;;1.63;;
71106;SDS011;58763;47.982;11.516;2024-02-16T00:12:35;2.72;;;1.17;;
71106;SDS011;58763;47.982;11.516;2024-02-16T00:15:02;2.85;;;1.15;;
71106;SDS011;58763;47.982;11.516;2024-02-16T00:17:28;4.07;;;1.30;;
71106;SDS011;58763;47.982;11.516;2024-02-16T00:19:54;2.83;;;1.20;;
71106;SDS011;58763;47.982;11.516;2024-02-16T00:22:23;5.18;;;1.30;;
71106;SDS011;58763;47.982;11.516;2024-02-16T00:24:49;3.78;;;1.30;;
71106;SDS011;58763;47.982;11.516;2024-02-16T00:27:15;3.03;;;1.27;;
71106;SDS011;58763;47.982;11.516;2024-02-16T00:29:43;3.35;;;1.30;;
71106;SDS011;58763;47.982;11.516;2024-02-16T00:32:08;2.50;;;1.17;;
71106;SDS011;58763;47.982;11.516;2024-02-16T00:34:38;3.17;;;1.15;;
71106;SDS011;58763;47.982;11.516;2024-02-16T00:37:06;2.65;;;1.20;;
71106;SDS011;58763;47.982;11.516;2024-02-16T00:39:37;4.70;;;1.30;;
71106;SDS011;58763;47.982;11.516;2024-02-16T00:42:06;3.03;;;0.90;;
71106;SDS011;58763;47.982;11.516;2024-02-16T00:44:32;3.50;;;0.93;;
71106;SDS011;58763;47.982;11.516;2024-02-16T00:46:57;2.65;;;1.05;;
71106;SDS011;58763;47.982;11.516;2024-02-16T00:49:23;2.85;;;1.10;;
71106;SDS011;58763;47.982;11.516;2024-02-16T00:51:49;4.38;;;1.23;;
71106;SDS011;58763;47.982;11.516;2024-02-16T00:54:16;3.00;;;1.02;;
71106;SDS011;58763;47.982;11.516;2024-02-16T00:56:42;3.25;;;1.27;;
71106;SDS011;58763;47.982;11.516;2024-02-16T00:59:07;3.10;;;1.10;;
71106;SDS011;58763;47.982;11.516;2024-02-16T01:01:35;2.88;;;1.00;;
71106;SDS011;58763;47.982;11.516;2024-02-16T01:04:01;2.42;;;1.10;;
71106;SDS011;58763;47.982;11.516;2024-02-16T01:06:28;3.08;;;1.15;;
71106;SDS011;58763;47.982;11.516;2024-02-16T01:08:53;3.22;;;1.08;;
71106;SDS011;58763;47.982;11.516;2024-02-16T01:11:19;3.13;;;1.00;;
71106;SDS011;58763;47.982;11.516;2024-02-16T01:13:48;2.08;;;1.00;;
71106;SDS011;58763;47.982;11.516;2024-02-16T01:16:13;2.45;;;1.10;;
71106;SDS011;58763;47.982;11.516;2024-02-16T01:18:39;2.92;;;1.05;;
71106;SDS011;58763;47.982;11.516;2024-02-16T01:21:05;2.33;;;0.90;;
71106;SDS011;58763;47.982;11.516;2024-02-16T01:23:31;1.92;;;0.80;;
71106;SDS011;58763;47.982;11.516;2024-02-16T01:25:56;1.88;;;0.80;;
71106;SDS011;58763;47.982;11.516;2024-02-16T01:28:22;2.38;;;0.90;;
71106;SDS011;58763;47.982;11.516;2024-02-16T01:30:48;2.33;;;0.95;;
71106;SDS011;58763;47.982;11.516;2024-02-16T01:33:14;2.50;;;0.93;;
71106;SDS011;58763;47.982;11.516;2024-02-16T01:35:41;3.03;;;0.90;;
71106;SDS011;58763;47.982;11.516;2024-02-16T01:38:06;2.45;;;0.88;;
71106;SDS011;58763;47.982;11.516;2024-02-16T01:40:32;2.35;;;0.93;;
71106;SDS011;58763;47.982;11.516;2024-02-16T01:42:58;2.65;;;0.80;;
71106;SDS011;58763;47.982;11.516;2024-02-16T01:45:23;2.15;;;0.80;;
71106;SDS011;58763;47.982;11.516;2024-02-16T01:47:49;2.85;;;0.95;;
71106;SDS011;58763;47.982;11.516;2024-02-16T01:50:17;2.85;;;0.82;;
71106;SDS011;58763;47.982;11.516;2024-02-16T01:52:44;2.33;;;0.90;;
71106;SDS011;58763;47.982;11.516;2024-02-16T01:55:11;2.78;;;0.95;;
71106;SDS011;58763;47.982;11.516;2024-02-16T01:57:42;3.13;;;1.20;;
71106;SDS011;58763;47.982;11.516;2024-02-16T02:00:09;3.00;;;1.10;;
71106;SDS011;58763;47.982;11.516;2024-02-16T02:02:36;3.53;;;1.55;;
71106;SDS011;58763;47.982;11.516;2024-02-16T02:05:02;3.67;;;1.77;;
71106;SDS011;58763;47.982;11.516;2024-02-16T02:07:28;3.55;;;1.70;;
71106;SDS011;58763;47.982;11.516;2024-02-16T02:09:55;4.03;;;1.70;;
71106;SDS011;58763;47.982;11.516;2024-02-16T02:12:20;4.07;;;1.70;;
71106;SDS011;58763;47.982;11.516;2024-02-16T02:14:48;3.08;;;1.52;;
71106;SDS011;58763;47.982;11.516;2024-02-16T02:17:14;2.97;;;1.17;;
71106;SDS011;58763;47.982;11.516;2024-02-16T02:19:42;3.38;;;1.17;;
71106;SDS011;58763;47.982;11.516;2024-02-16T02:22:13;2.38;;;0.98;;
71106;SDS011;58763;47.982;11.516;2024-02-16T02:24:39;3.38;;;1.20;;
71106;SDS011;58763;47.982;11.516;2024-02-16T02:27:05;2.28;;;1.00;;
71106;SDS011;58763;47.982;11.516;2024-02-16T02:29:31;4.75;;;1.30;;
71106;SDS011;58763;47.982;11.516;2024-02-16T02:31:56;3.05;;;1.30;;
71106;SDS011;58763;47.982;11.516;2024-02-16T02:34:22;2.85;;;1.00;;
71106;SDS011;58763;47.982;11.516;2024-02-16T02:36:47;3.05;;;1.23;;
71106;SDS011;58763;47.982;11.516;2024-02-16T02:39:14;2.92;;;1.00;;
71106;SDS011;58763;47.982;11.516;2024-02-16T02:41:39;2.45;;;0.90;;
71106;SDS011;58763;47.982;11.516;2024-02-16T02:44:05;3.97;;;1.40;;
71106;SDS011;58763;47.982;11.516;2024-02-16T02:46:31;3.55;;;1.30;;
71106;SDS011;58763;47.982;11.516;2024-02-16T02:48:56;5.07;;;1.30;;
71106;SDS011;58763;47.982;11.516;2024-02-16T02:51:22;3.33;;;1.30;;
71106;SDS011;58763;47.982;11.516;2024-02-16T02:53:47;4.10;;;1.30;;
71106;SDS011;58763;47.982;11.516;2024-02-16T02:56:13;3.63;;;1.20;;
71106;SDS011;58763;47.982;11.516;2024-02-16T02:58:39;2.58;;;1.10;;
71106;SDS011;58763;47.982;11.516;2024-02-16T03:01:05;4.45;;;1.60;;
71106;SDS011;58763;47.982;11.516;2024-02-16T03:03:33;2.78;;;1.23;;
71106;SDS011;58763;47.982;11.516;2024-02-16T03:05:59;2.55;;;0.90;;
71106;SDS011;58763;47.982;11.516;2024-02-16T03:08:25;2.95;;;0.75;;
71106;SDS011;58763;47.982;11.516;2024-02-16T03:10:51;2.30;;;0.70;;
71106;SDS011;58763;47.982;11.516;2024-02-16T03:13:17;2.53;;;0.80;;
71106;SDS011;58763;47.982;11.516;2024-02-16T03:15:46;2.55;;;0.90;;
71106;SDS011;58763;47.982;11.516;2024-02-16T03:18:11;2.17;;;0.93;;
71106;SDS011;58763;47.982;11.516;2024-02-16T03:20:37;2.00;;;0.60;;
71106;SDS011;58763;47.982;11.516;2024-02-16T03:23:02;2.20;;;0.70;;
71106;SDS011;58763;47.982;11.516;2024-02-16T03:25:28;2.28;;;1.00;;
71106;SDS011;58763;47.982;11.516;2024-02-16T03:27:54;3.50;;;1.00;;
71106;SDS011;58763;47.982;11.516;2024-02-16T03:30:20;2.67;;;0.90;;
71106;SDS011;58763;47.982;11.516;2024-02-16T03:32:50;2.85;;;0.88;;
71106;SDS011;58763;47.982;11.516;2024-02-16T03:35:17;2.55;;;0.88;;
71106;SDS011;58763;47.982;11.516;2024-02-16T03:37:44;2.53;;;0.80;;
71106;SDS011;58763;47.982;11.516;2024-02-16T03:40:10;2.28;;;0.90;;
71106;SDS011;58763;47.982;11.516;2024-02-16T03:42:38;2.15;;;0.80;;
71106;SDS011;58763;47.982;11.516;2024-02-16T03:45:06;2.28;;;0.80;;
71106;SDS011;58763;47.982;11.516;2024-02-16T03:47:32;1.83;;;0.80;;
71106;SDS011;58763;47.982;11.516;2024-02-16T03:49:58;1.85;;;0.70;;
71106;SDS011;58763;47.982;11.516;2024-02-16T03:52:24;1.73;;;0.70;;
71106;SDS011;58763;47.982;11.516;2024-02-16T03:54:50;1.70;;;0.80;;
71106;SDS011;58763;47.982;11.516;2024-02-16T03:57:16;2.53;;;0.90;;
71106;SDS011;58763;47.982;11.516;2024-02-16T03:59:42;4.75;;;1.20;;
71106;SDS011;58763;47.982;11.516;2024-02-16T04:02:09;3.33;;;1.02;;
71106;SDS011;58763;47.982;11.516;2024-02-16T04:04:35;2.58;;;0.77;;
71106;SDS011;58763;47.982;11.516;2024-02-16T04:07:01;2.33;;;0.70;;
71106;SDS011;58763;47.982;11.516;2024-02-16T04:09:26;3.15;;;0.90;;
71106;SDS011;58763;47.982;11.516;2024-02-16T04:11:52;1.98;;;0.75;;
71106;SDS011;58763;47.982;11.516;2024-02-16T04:14:18;2.00;;;0.57;;
71106;SDS011;58763;47.982;11.516;2024-02-16T04:16:43;1.80;;;0.65;;
71106;SDS011;58763;47.982;11.516;2024-02-16T04:19:09;1.98;;;0.77;;
71106;SDS011;58763;47.982;11.516;2024-02-16T04:21:35;2.92;;;0.68;;
71106;SDS011;58763;47.982;11.516;2024-02-16T04:24:01;2.40;;;0.95;;
71106;SDS011;58763;47.982;11.516;2024-02-16T04:26:27;3.17;;;1.00;;
71106;SDS011;58763;47.982;11.516;2024-02-16T04:28:53;4.25;;;0.70;;
71106;SDS011;58763;47.982;11.516;2024-02-16T04:31:18;2.45;;;0.77;;
71106;SDS011;58763;47.982;11.516;2024-02-16T04:33:44;2.50;;;0.80;;
71106;SDS011;58763;47.982;11.516;2024-02-16T04:36:09;2.08;;;0.80;;
71106;SDS011;58763;47.982;11.516;2024-02-16T04:38:35;2.17;;;0.60;;
71106;SDS011;58763;47.982;11.516;2024-02-16T04:41:01;2.75;;;0.55;;
71106;SDS011;58763;47.982;11.516;2024-02-16T04:43:26;1.63;;;0.70;;
71106;SDS011;58763;47.982;11.516;2024-02-16T04:45:52;3.08;;;0.93;;
71106;SDS011;58763;47.982;11.516;2024-02-16T04:48:19;2.15;;;0.80;;
71106;SDS011;58763;47.982;11.516;2024-02-16T04:50:45;2.20;;;0.80;;
71106;SDS011;58763;47.982;11.516;2024-02-16T04:53:11;3.63;;;0.80;;
71106;SDS011;58763;47.982;11.516;2024-02-16T04:55:36;2.20;;;0.80;;
71106;SDS011;58763;47.982;11.516;2024-02-16T04:58:02;1.98;;;0.90;;
71106;SDS011;58763;47.982;11.516;2024-02-16T05:00:34;3.28;;;1.00;;
71106;SDS011;58763;47.982;11.516;2024-02-16T05:02:59;1.92;;;0.80;;
71106;SDS011;58763;47.982;11.516;2024-02-16T05:05:25;2.72;;;0.65;;
71106;SDS011;58763;47.982;11.516;2024-02-16T05:07:51;2.50;;;0.60;;
71106;SDS011;58763;47.982;11.516;2024-02-16T05:10:16;2.67;;;0.93;;
71106;SDS011;58763;47.982;11.516;2024-02-16T05:12:42;2.22;;;0.75;;
71106;SDS011;58763;47.982;11.516;2024-02-16T05:15:08;2.17;;;0.80;;
71106;SDS011;58763;47.982;11.516;2024-02-16T05:17:34;2.22;;;0.65;;
71106;SDS011;58763;47.982;11.516;2024-02-16T05:20:00;2.30;;;0.80;;
71106;SDS011;58763;47.982;11.516;2024-02-16T05:22:25;2.15;;;0.95;;
71106;SDS011;58763;47.982;11.516;2024-02-16T05:24:51;2.25;;;0.98;;
71106;SDS011;58763;47.982;11.516;2024-02-16T05:27:16;2.22;;;0.77;;
71106;SDS011;58763;47.982;11.516;2024-02-16T05:29:42;1.92;;;0.60;;
71106;SDS011;58763;47.982;11.516;2024-02-16T05:32:07;2.47;;;0.75;;
71106;SDS011;58763;47.982;11.516;2024-02-16T05:34:33;1.95;;;0.63;;
71106;SDS011;58763;47.982;11.516;2024-02-16T05:37:03;2.28;;;0.80;;
71106;SDS011;58763;47.982;11.516;2024-02-16T05:39:32;3.55;;;0.85;;
71106;SDS011;58763;47.982;11.516;2024-02-16T05:42:01;3.00;;;0.80;;
71106;SDS011;58763;47.982;11.516;2024-02-16T05:44:27;8.63;;;3.47;;
71106;SDS011;58763;47.982;11.516;2024-02-16T05:46:53;2.97;;;1.00;;
71106;SDS011;58763;47.982;11.516;2024-02-16T05:49:19;4.25;;;0.95;;
71106;SDS011;58763;47.982;11.516;2024-02-16T05:51:45;2.75;;;0.93;;
71106;SDS011;58763;47.982;11.516;2024-02-16T05:54:31;1.83;;;0.70;;
71106;SDS011;58763;47.982;11.516;2024-02-16T05:56:56;2.80;;;1.00;;
71106;SDS011;58763;47.982;11.516;2024-02-16T05:59:22;2.70;;;0.85;;
71106;SDS011;58763;47.982;11.516;2024-02-16T06:01:47;4.90;;;1.00;;
71106;SDS011;58763;47.982;11.516;2024-02-16T06:04:14;2.80;;;0.98;;
71106;SDS011;58763;47.982;11.516;2024-02-16T06:06:39;2.63;;;0.82;;
71106;SDS011;58763;47.982;11.516;2024-02-16T06:09:05;2.33;;;0.68;;
71106;SDS011;58763;47.982;11.516;2024-02-16T06:11:31;3.05;;;1.00;;
71106;SDS011;58763;47.982;11.516;2024-02-16T06:13:57;3.92;;;0.70;;
71106;SDS011;58763;47.982;11.516;2024-02-16T06:16:22;2.92;;;0.70;;
71106;SDS011;58763;47.982;11.516;2024-02-16T06:18:48;4.85;;;2.13;;
71106;SDS011;58763;47.982;11.516;2024-02-16T06:21:14;4.97;;;1.80;;
71106;SDS011;58763;47.982;11.516;2024-02-16T06:23:41;4.13;;;1.63;;
71106;SDS011;58763;47.982;11.516;2024-02-16T06:26:06;3.22;;;1.25;;
71106;SDS011;58763;47.982;11.516;2024-02-16T06:28:32;2.35;;;1.10;;
71106;SDS011;58763;47.982;11.516;2024-02-16T06:30:57;2.72;;;1.00;;
71106;SDS011;58763;47.982;11.516;2024-02-16T06:33:23;2.95;;;1.10;;
71106;SDS011;58763;47.982;11.516;2024-02-16T06:35:48;2.10;;;0.88;;
71106;SDS011;58763;47.982;11.516;2024-02-16T06:38:15;2.95;;;1.20;;
71106;SDS011;58763;47.982;11.516;2024-02-16T06:40:41;2.92;;;1.15;;
71106;SDS011;58763;47.982;11.516;2024-02-16T06:43:06;3.58;;;1.00;;
71106;SDS011;58763;47.982;11.516;2024-02-16T06:45:32;2.55;;;0.88;;
71106;SDS011;58763;47.982;11.516;2024-02-16T06:47:57;2.25;;;0.88;;
71106;SDS011;58763;47.982;11.516;2024-02-16T06:50:23;2.88;;;1.00;;
71106;SDS011;58763;47.982;11.516;2024-02-16T06:52:48;3.15;;;0.80;;
71106;SDS011;58763;47.982;11.516;2024-02-16T06:55:14;2.65;;;0.90;;
71106;SDS011;58763;47.982;11.516;2024-02-16T06:57:40;3.80;;;0.98;;
71106;SDS011;58763;47.982;11.516;2024-02-16T07:00:07;3.20;;;1.20;;
71106;SDS011;58763;47.982;11.516;2024-02-16T07:02:34;4.53;;;1.02;;
71106;SDS011;58763;47.982;11.516;2024-02-16T07:05:00;3.80;;;1.13;;
71106;SDS011;58763;47.982;11.516;2024-02-16T07:07:25;2.55;;;1.27;;
71106;SDS011;58763;47.982;11.516;2024-02-16T07:09:51;4.90;;;1.10;;
71106;SDS011;58763;47.982;11.516;2024-02-16T07:12:16;5.93;;;1.05;;
71106;SDS011;58763;47.982;11.516;2024-02-16T07:14:42;4.63;;;0.90;;
71106;SDS011;58763;47.982;11.516;2024-02-16T07:17:09;3.22;;;1.10;;
71106;SDS011;58763;47.982;11.516;2024-02-16T07:19:35;2.70;;;1.15;;
71106;SDS011;58763;47.982;11.516;2024-02-16T07:22:02;2.78;;;1.17;;
71106;SDS011;58763;47.982;11.516;2024-02-16T07:24:27;2.85;;;1.30;;
71106;SDS011;58763;47.982;11.516;2024-02-16T07:26:53;4.35;;;1.30;;
71106;SDS011;58763;47.982;11.516;2024-02-16T07:29:18;3.95;;;1.23;;
71106;SDS011;58763;47.982;11.516;2024-02-16T07:31:44;5.70;;;1.40;;
71106;SDS011;58763;47.982;11.516;2024-02-16T07:34:10;3.60;;;1.10;;
71106;SDS011;58763;47.982;11.516;2024-02-16T07:36:37;6.82;;;2.45;;
71106;SDS011;58763;47.982;11.516;2024-02-16T07:39:02;18.35;;;4.40;;
71106;SDS011;58763;47.982;11.516;2024-02-16T07:41:30;12.13;;;3.53;;
71106;SDS011;58763;47.982;11.516;2024-02-16T07:43:56;17.02;;;5.35;;
71106;SDS011;58763;47.982;11.516;2024-02-16T07:46:21;8.90;;;2.47;;
71106;SDS011;58763;47.982;11.516;2024-02-16T07:48:48;9.55;;;2.38;;
71106;SDS011;58763;47.982;11.516;2024-02-16T07:51:14;8.55;;;2.00;;
71106;SDS011;58763;47.982;11.516;2024-02-16T07:53:39;4.13;;;1.25;;
71106;SDS011;58763;47.982;11.516;2024-02-16T07:56:07;10.55;;;1.52;;
71106;SDS011;58763;47.982;11.516;2024-02-16T07:58:33;2.28;;;0.90;;
71106;SDS011;58763;47.982;11.516;2024-02-16T08:00:58;3.60;;;1.00;;
71106;SDS011;58763;47.982;11.516;2024-02-16T08:03:24;2.85;;;1.10;;
71106;SDS011;58763;47.982;11.516;2024-02-16T08:05:50;8.57;;;1.35;;
71106;SDS011;58763;47.982;11.516;2024-02-16T08:08:16;4.43;;;0.98;;
71106;SDS011;58763;47.982;11.516;2024-02-16T08:10:41;2.17;;;0.95;;
71106;SDS011;58763;47.982;11.516;2024-02-16T08:13:07;2.72;;;1.10;;
71106;SDS011;58763;47.982;11.516;2024-02-16T08:15:33;2.78;;;1.00;;
71106;SDS011;58763;47.982;11.516;2024-02-16T08:17:58;2.80;;;1.00;;
71106;SDS011;58763;47.982;11.516;2024-02-16T08:20:24;2.28;;;1.00;;
71106;SDS011;58763;47.982;11.516;2024-02-16T08:22:50;3.22;;;1.27;;
71106;SDS011;58763;47.982;11.516;2024-02-16T08:25:15;3.33;;;1.17;;
71106;SDS011;58763;47.982;11.516;2024-02-16T08:27:41;3.13;;;1.00;;
71106;SDS011;58763;47.982;11.516;2024-02-16T08:30:07;5.00;;;1.30;;
71106;SDS011;58763;47.982;11.516;2024-02-16T08:32:36;3.80;;;1.40;;
71106;SDS011;58763;47.982;11.516;2024-02-16T08:35:02;5.25;;;1.85;;
71106;SDS011;58763;47.982;11.516;2024-02-16T08:37:28;2.55;;;1.00;;
71106;SDS011;58763;47.982;11.516;2024-02-16T08:39:54;3.00;;;1.08;;
71106;SDS011;58763;47.982;11.516;2024-02-16T08:42:19;3.85;;;1.23;;
71106;SDS011;58763;47.982;11.516;2024-02-16T08:44:46;2.60;;;0.98;;
71106;SDS011;58763;47.982;11.516;2024-02-16T08:47:12;3.67;;;1.35;;
71106;SDS011;58763;47.982;11.516;2024-02-16T08:49:37;3.45;;;1.10;;
71106;SDS011;58763;47.982;11.516;2024-02-16T08:52:06;2.72;;;1.00;;
71106;SDS011;58763;47.982;11.516;2024-02-16T08:54:31;7.53;;;1.48;;
71106;SDS011;58763;47.982;11.516;2024-02-16T08:56:57;12.80;;;1.90;;
71106;SDS011;58763;47.982;11.516;2024-02-16T08:59:23;15.70;;;1.80;;
71106;SDS011;58763;47.982;11.516;2024-02-16T09:01:48;9.23;;;1.17;;
71106;SDS011;58763;47.982;11.516;2024-02-16T09:04:14;3.33;;;1.00;;
71106;SDS011;58763;47.982;11.516;2024-02-16T09:06:41;4.55;;;1.00;;
71106;SDS011;58763;47.982;11.516;2024-02-16T09:09:07;3.55;;;1.10;;
71106;SDS011;58763;47.982;11.516;2024-02-16T09:11:33;3.42;;;0.90;;
71106;SDS011;58763;47.982;11.516;2024-02-16T09:14:01;2.08;;;0.90;;
71106;SDS011;58763;47.982;11.516;2024-02-16T09:16:27;4.22;;;1.05;;
71106;SDS011;58763;47.982;11.516;2024-02-16T09:18:52;2.58;;;1.00;;
71106;SDS011;58763;47.982;11.516;2024-02-16T09:21:18;4.03;;;1.02;;
71106;SDS011;58763;47.982;11.516;2024-02-16T09:23:45;2.80;;;1.10;;
71106;SDS011;58763;47.982;11.516;2024-02-16T09:26:11;4.47;;;1.30;;
71106;SDS011;58763;47.982;11.516;2024-02-16T09:28:40;2.78;;;1.15;;
71106;SDS011;58763;47.982;11.516;2024-02-16T09:31:06;3.80;;;1.13;;
71106;SDS011;58763;47.982;11.516;2024-02-16T09:33:33;4.53;;;1.40;;
71106;SDS011;58763;47.982;11.516;2024-02-16T09:36:00;4.03;;;1.42;;
71106;SDS011;58763;47.982;11.516;2024-02-16T09:38:26;4.55;;;1.30;;
71106;SDS011;58763;47.982;11.516;2024-02-16T09:40:52;8.68;;;1.60;;
71106;SDS011;58763;47.982;11.516;2024-02-16T09:43:27;10.50;;;1.67;;
71106;SDS011;58763;47.982;11.516;2024-02-16T09:45:57;7.28;;;1.60;;
71106;SDS011;58763;47.982;11.516;2024-02-16T09:48:27;15.05;;;1.60;;
71106;SDS011;58763;47.982;11.516;2024-02-16T09:50:54;10.55;;;2.17;;
71106;SDS011;58763;47.982;11.516;2024-02-16T09:53:23;8.02;;;1.90;;
71106;SDS011;58763;47.982;11.516;2024-02-16T09:55:50;8.35;;;1.63;;
71106;SDS011;58763;47.982;11.516;2024-02-16T09:58:16;7.70;;;1.70;;
71106;SDS011;58763;47.982;11.516;2024-02-16T10:00:48;6.90;;;1.70;;
71106;SDS011;58763;47.982;11.516;2024-02-16T10:03:30;4.03;;;1.30;;
71106;SDS011;58763;47.982;11.516;2024-02-16T10:06:07;6.05;;;1.42;;
71106;SDS011;58763;47.982;11.516;2024-02-16T10:08:35;6.97;;;1.70;;
71106;SDS011;58763;47.982;11.516;2024-02-16T10:11:14;3.63;;;1.30;;
71106;SDS011;58763;47.982;11.516;2024-02-16T10:13:40;3.90;;;1.10;;
71106;SDS011;58763;47.982;11.516;2024-02-16T10:16:06;3.70;;;1.10;;
71106;SDS011;58763;47.982;11.516;2024-02-16T10:18:35;2.70;;;1.00;;
71106;SDS011;58763;47.982;11.516;2024-02-16T10:21:01;2.85;;;1.05;;
71106;SDS011;58763;47.982;11.516;2024-02-16T10:23:27;3.85;;;1.00;;
71106;SDS011;58763;47.982;11.516;2024-02-16T10:25:53;3.28;;;1.05;;
71106;SDS011;58763;47.982;11.516;2024-02-16T10:28:19;2.78;;;0.82;;
71106;SDS011;58763;47.982;11.516;2024-02-16T10:30:56;4.40;;;0.95;;
71106;SDS011;58763;47.982;11.516;2024-02-16T10:33:31;4.97;;;0.93;;
71106;SDS011;58763;47.982;11.516;2024-02-16T10:35:57;2.97;;;1.20;;
71106;SDS011;58763;47.982;11.516;2024-02-16T10:38:24;3.28;;;0.90;;
71106;SDS011;58763;47.982;11.516;2024-02-16T10:40:52;2.25;;;1.00;;
71106;SDS011;58763;47.982;11.516;2024-02-16T10:43:21;5.75;;;1.05;;
71106;SDS011;58763;47.982;11.516;2024-02-16T10:45:48;3.78;;;1.13;;
71106;SDS011;58763;47.982;11.516;2024-02-16T10:48:18;2.53;;;1.02;;
71106;SDS011;58763;47.982;11.516;2024-02-16T10:50:44;2.65;;;0.80;;
71106;SDS011;58763;47.982;11.516;2024-02-16T10:53:28;4.30;;;1.00;;
71106;SDS011;58763;47.982;11.516;2024-02-16T10:55:58;3.65;;;1.20;;
71106;SDS011;58763;47.982;11.516;2024-02-16T10:58:29;4.18;;;1.00;;
71106;SDS011;58763;47.982;11.516;2024-02-16T11:00:55;3.28;;;1.08;;
71106;SDS011;58763;47.982;11.516;2024-02-16T11:03:23;2.47;;;0.90;;
71106;SDS011;58763;47.982;11.516;2024-02-16T11:05:53;2.30;;;0.90;;
71106;SDS011;58763;47.982;11.516;2024-02-16T11:08:20;2.75;;;1.13;;
71106;SDS011;58763;47.982;11.516;2024-02-16T11:11:01;2.90;;;1.02;;
71106;SDS011;58763;47.982;11.516;2024-02-16T11:13:32;2.55;;;1.00;;
71106;SDS011;58763;47.982;11.516;2024-02-16T11:18:25;2.70;;;1.05;;
71106;SDS011;58763;47.982;11.516;2024-02-16T11:20:53;2.85;;;1.15;;
71106;SDS011;58763;47.982;11.516;2024-02-16T11:23:27;3.63;;;0.90;;
71106;SDS011;58763;47.982;11.516;2024-02-16T11:26:00;2.42;;;0.93;;
71106;SDS011;58763;47.982;11.516;2024-02-16T11:28:33;2.22;;;0.80;;
71106;SDS011;58763;47.982;11.516;2024-02-16T11:31:00;4.40;;;0.88;;
71106;SDS011;58763;47.982;11.516;2024-02-16T11:33:26;2.22;;;0.77;;
71106;SDS011;58763;47.982;11.516;2024-02-16T11:35:56;2.63;;;1.00;;
71106;SDS011;58763;47.982;11.516;2024-02-16T11:38:26;2.78;;;0.88;;
71106;SDS011;58763;47.982;11.516;2024-02-16T11:40:53;2.42;;;0.80;;
71106;SDS011;58763;47.982;11.516;2024-02-16T11:43:29;2.65;;;0.75;;
71106;SDS011;58763;47.982;11.516;2024-02-16T11:45:56;4.50;;;0.98;;
71106;SDS011;58763;47.982;11.516;2024-02-16T11:48:22;2.20;;;1.00;;
71106;SDS011;58763;47.982;11.516;2024-02-16T11:50:57;4.10;;;1.10;;
71106;SDS011;58763;47.982;11.516;2024-02-16T11:53:29;5.40;;;1.35;;
71106;SDS011;58763;47.982;11.516;2024-02-16T11:55:55;1.67;;;0.60;;
71106;SDS011;58763;47.982;11.516;2024-02-16T11:58:21;4.47;;;0.90;;
71106;SDS011;58763;47.982;11.516;2024-02-16T12:00:48;2.33;;;0.85;;
71106;SDS011;58763;47.982;11.516;2024-02-16T12:03:23;3.00;;;0.85;;
71106;SDS011;58763;47.982;11.516;2024-02-16T12:05:54;2.83;;;0.85;;
71106;SDS011;58763;47.982;11.516;2024-02-16T12:10:51;4.72;;;0.98;;
71106;SDS011;58763;47.982;11.516;2024-02-16T12:13:18;3.50;;;1.15;;
71106;SDS011;58763;47.982;11.516;2024-02-16T12:15:49;2.88;;;0.88;;
71106;SDS011;58763;47.982;11.516;2024-02-16T12:18:23;2.65;;;0.80;;
71106;SDS011;58763;47.982;11.516;2024-02-16T12:21:25;3.33;;;1.00;;
71106;SDS011;58763;47.982;11.516;2024-02-16T12:23:45;3.83;;;0.80;;
71106;SDS011;58763;47.982;11.516;2024-02-16T12:26:11;2.40;;;0.90;;
71106;SDS011;58763;47.982;11.516;2024-02-16T12:28:36;3.55;;;1.00;;
71106;SDS011;58763;47.982;11.516;2024-02-16T12:31:02;3.65;;;1.00;;
71106;SDS011;58763;47.982;11.516;2024-02-16T12:33:28;3.83;;;1.10;;
71106;SDS011;58763;47.982;11.516;2024-02-16T12:35:54;2.85;;;0.90;;
71106;SDS011;58763;47.982;11.516;2024-02-16T12:38:19;2.33;;;1.00;;
71106;SDS011;58763;47.982;11.516;2024-02-16T12:40:48;3.22;;;1.20;;
71106;SDS011;58763;47.982;11.516;2024-02-16T12:43:14;3.13;;;0.88;;
71106;SDS011;58763;47.982;11.516;2024-02-16T12:45:40;2.67;;;0.95;;
71106;SDS011;58763;47.982;11.516;2024-02-16T12:48:07;3.03;;;1.00;;
71106;SDS011;58763;47.982;11.516;2024-02-16T12:50:35;6.13;;;0.98;;
71106;SDS011;58763;47.982;11.516;2024-02-16T12:53:03;2.72;;;0.88;;
71106;SDS011;58763;47.982;11.516;2024-02-16T12:55:29;3.08;;;1.23;;
71106;SDS011;58763;47.982;11.516;2024-02-16T12:57:55;5.03;;;1.02;;
71106;SDS011;58763;47.982;11.516;2024-02-16T13:00:28;3.63;;;1.10;;
71106;SDS011;58763;47.982;11.516;2024-02-16T13:06:14;3.83;;;0.83;;
71106;SDS011;58763;47.982;11.516;2024-02-16T13:08:40;3.30;;;0.70;;
71106;SDS011;58763;47.982;11.516;2024-02-16T13:11:05;2.38;;;0.80;;
71106;SDS011;58763;47.982;11.516;2024-02-16T13:13:31;4.10;;;1.10;;
71106;SDS011;58763;47.982;11.516;2024-02-16T13:15:58;3.88;;;1.05;;
71106;SDS011;58763;47.982;11.516;2024-02-16T13:18:24;2.70;;;0.95;;
71106;SDS011;58763;47.982;11.516;2024-02-16T13:20:50;3.15;;;0.93;;
71106;SDS011;58763;47.982;11.516;2024-02-16T13:23:16;1.88;;;0.70;;
71106;SDS011;58763;47.982;11.516;2024-02-16T13:25:41;3.25;;;0.77;;
71106;SDS011;58763;47.982;11.516;2024-02-16T13:28:07;4.13;;;1.00;;
71106;SDS011;58763;47.982;11.516;2024-02-16T13:30:33;4.93;;;1.05;;
71106;SDS011;58763;47.982;11.516;2024-02-16T13:32:59;4.10;;;0.80;;
71106;SDS011;58763;47.982;11.516;2024-02-16T13:35:24;4.22;;;0.90;;
71106;SDS011;58763;47.982;11.516;2024-02-16T13:37:51;2.05;;;0.80;;
71106;SDS011;58763;47.982;11.516;2024-02-16T13:40:17;2.17;;;0.85;;
71106;SDS011;58763;47.982;11.516;2024-02-16T13:42:43;3.03;;;0.90;;
71106;SDS011;58763;47.982;11.516;2024-02-16T13:45:11;2.72;;;1.00;;
71106;SDS011;58763;47.982;11.516;2024-02-16T13:47:36;3.47;;;0.77;;
71106;SDS011;58763;47.982;11.516;2024-02-16T13:50:07;4.03;;;0.95;;
71106;SDS011;58763;47.982;11.516;2024-02-16T13:52:34;3.65;;;0.80;;
71106;SDS011;58763;47.982;11.516;2024-02-16T13:55:00;4.03;;;0.90;;
71106;SDS011;58763;47.982;11.516;2024-02-16T13:57:26;2.65;;;0.57;;
71106;SDS011;58763;47.982;11.516;2024-02-16T13:59:51;2.28;;;0.77;;
71106;SDS011;58763;47.982;11.516;2024-02-16T14:02:17;2.70;;;0.80;;
71106;SDS011;58763;47.982;11.516;2024-02-16T14:04:43;3.45;;;1.10;;
71106;SDS011;58763;47.982;11.516;2024-02-16T14:07:09;3.17;;;0.80;;
71106;SDS011;58763;47.982;11.516;2024-02-16T14:09:35;3.78;;;0.80;;
71106;SDS011;58763;47.982;11.516;2024-02-16T14:12:00;4.55;;;0.85;;
71106;SDS011;58763;47.982;11.516;2024-02-16T14:14:26;3.40;;;1.00;;
71106;SDS011;58763;47.982;11.516;2024-02-16T14:16:52;4.05;;;1.10;;
71106;SDS011;58763;47.982;11.516;2024-02-16T14:19:18;2.42;;;0.98;;
71106;SDS011;58763;47.982;11.516;2024-02-16T14:21:44;3.53;;;0.80;;
71106;SDS011;58763;47.982;11.516;2024-02-16T14:24:09;4.70;;;1.27;;
71106;SDS011;58763;47.982;11.516;2024-02-16T14:26:38;3.55;;;0.80;;
71106;SDS011;58763;47.982;11.516;2024-02-16T14:29:07;6.88;;;1.08;;
71106;SDS011;58763;47.982;11.516;2024-02-16T14:31:33;3.80;;;0.88;;
71106;SDS011;58763;47.982;11.516;2024-02-16T14:33:59;4.43;;;1.10;;
71106;SDS011;58763;47.982;11.516;2024-02-16T14:36:25;6.03;;;1.13;;
71106;SDS011;58763;47.982;11.516;2024-02-16T14:38:50;3.00;;;0.93;;